Time;durP1;ratioP1;P1;durP2;ratioP2;P2;SDS_P1;SDS_P2;PMS_P1;PMS_P2;Temp;Humidity;BMP_temperature;BMP_pressure;BME280_temperature;BME280_humidity;BME280_pressure;Samples;Min_cycle;Max_cycle;Signal;HPM_P1;HPM_P2
2021/12/16 00:07:16;;;;;;;52.13;22.60;;;;;;;;;;4971843;28;20051;-71
2021/12/16 00:09:08;;;;;;;46.55;21.48;;;;;;;;;;4963567;28;20065;-70
2021/12/16 00:20:25;;;;;;;60.60;23.27;;;;;;;;;;4953407;28;20063;-70
2021/12/16 00:29:07;;;;;;;57.03;22.02;;;;;;;;;;4958291;28;20504;-71
2021/12/16 00:31:17;;;;;;;55.80;21.90;;;;;;;;;;4972496;28;20058;-70
2021/12/16 00:33:43;;;;;;;55.92;21.58;;;;;;;;;;4972631;28;20085;-71
2021/12/16 00:36:11;;;;;;;62.40;22.70;;;;;;;;;;4972259;28;20478;-71
2021/12/16 00:38:38;;;;;;;56.33;20.58;;;;;;;;;;4972561;28;20059;-70
2021/12/16 00:41:06;;;;;;;60.75;21.08;;;;;;;;;;4972613;28;20067;-71
2021/12/16 00:43:50;;;;;;;62.55;22.33;;;;;;;;;;4971942;28;20047;-70
2021/12/16 00:46:57;;;;;;;52.60;21.05;;;;;;;;;;4960638;28;20488;-71
2021/12/16 00:49:22;;;;;;;54.22;19.30;;;;;;;;;;4972461;28;20055;-71
2021/12/16 00:54:35;;;;;;;49.80;20.00;;;;;;;;;;4971995;28;20540;-71
2021/12/16 00:57:07;;;;;;;44.42;18.80;;;;;;;;;;4972102;28;20052;-70
2021/12/16 00:59:38;;;;;;;46.95;19.00;;;;;;;;;;4971966;28;20057;-70
2021/12/16 01:02:44;;;;;;;42.80;19.02;;;;;;;;;;4955302;28;20538;-71
2021/12/16 01:05:39;;;;;;;57.08;18.65;;;;;;;;;;4971758;28;20446;-71
2021/12/16 01:08:12;;;;;;;38.15;18.70;;;;;;;;;;4971463;28;20086;-71
2021/12/16 01:38:50;;;;;;;42.65;15.43;;;;;;;;;;4973045;28;20055;-70
2021/12/16 01:49:34;;;;;;;29.92;15.27;;;;;;;;;;4972058;28;20055;-72
2021/12/16 01:52:38;;;;;;;38.40;14.73;;;;;;;;;;4971443;28;20059;-72
2021/12/16 01:55:10;;;;;;;36.75;15.05;;;;;;;;;;4971369;28;20055;-72
2021/12/16 01:57:42;;;;;;;27.52;14.02;;;;;;;;;;4971495;28;20134;-71
2021/12/16 02:00:15;;;;;;;39.20;14.98;;;;;;;;;;4970721;28;20066;-71
2021/12/16 02:05:27;;;;;;;28.50;14.60;;;;;;;;;;4970719;28;20480;-70
2021/12/16 02:10:29;;;;;;;32.53;15.52;;;;;;;;;;4951988;28;20431;-70
2021/12/16 02:13:32;;;;;;;30.90;16.00;;;;;;;;;;4952007;28;20068;-71
2021/12/16 02:32:07;;;;;;;34.13;15.50;;;;;;;;;;4968546;28;20053;-71
2021/12/16 02:35:11;;;;;;;32.33;15.57;;;;;;;;;;4951796;28;20517;-71
2021/12/16 02:37:35;;;;;;;34.50;15.85;;;;;;;;;;4968184;28;20057;-70
2021/12/16 02:40:03;;;;;;;28.48;15.32;;;;;;;;;;4970647;28;20529;-70
2021/12/16 02:42:54;;;;;;;26.80;15.25;;;;;;;;;;4970577;28;20067;-71
2021/12/16 02:50:51;;;;;;;29.77;15.45;;;;;;;;;;4951475;28;20355;-72
2021/12/16 02:53:18;;;;;;;30.33;15.57;;;;;;;;;;4963722;28;20055;-70
2021/12/16 02:55:46;;;;;;;28.27;15.43;;;;;;;;;;4970618;28;20055;-71
2021/12/16 02:58:14;;;;;;;33.17;16.15;;;;;;;;;;4970625;28;20059;-72
2021/12/16 03:00:46;;;;;;;31.98;14.73;;;;;;;;;;4970884;28;20051;-71
2021/12/16 03:03:12;;;;;;;31.15;16.25;;;;;;;;;;4959345;28;20517;-70
2021/12/16 03:05:39;;;;;;;24.92;14.75;;;;;;;;;;4966178;28;20154;-71
2021/12/16 03:08:06;;;;;;;29.88;14.50;;;;;;;;;;4970790;28;20063;-70
2021/12/16 03:13:24;;;;;;;35.50;16.17;;;;;;;;;;4972308;28;20501;-72
2021/12/16 03:16:11;;;;;;;31.98;15.15;;;;;;;;;;4972277;28;20061;-70
2021/12/16 03:21:19;;;;;;;30.48;15.15;;;;;;;;;;4970685;28;20055;-72
2021/12/16 03:31:55;;;;;;;34.30;15.43;;;;;;;;;;4970054;28;20063;-69
2021/12/16 03:34:38;;;;;;;30.17;15.18;;;;;;;;;;4973210;28;20513;-73
2021/12/16 03:37:15;;;;;;;28.85;15.02;;;;;;;;;;4973415;28;20472;-71
2021/12/16 03:39:43;;;;;;;30.10;15.75;;;;;;;;;;4973190;28;20109;-72
2021/12/16 03:42:10;;;;;;;37.72;16.65;;;;;;;;;;4972988;28;20052;-72
2021/12/16 03:44:58;;;;;;;31.70;15.48;;;;;;;;;;4973256;28;20059;-70
2021/12/16 03:47:36;;;;;;;29.60;15.57;;;;;;;;;;4973268;28;20066;-71
2021/12/16 03:50:05;;;;;;;33.03;15.25;;;;;;;;;;4972397;28;20537;-72
2021/12/16 03:52:32;;;;;;;31.20;15.77;;;;;;;;;;4973139;28;20066;-71
2021/12/16 03:54:59;;;;;;;31.63;17.60;;;;;;;;;;4972618;28;20055;-72
2021/12/16 03:57:26;;;;;;;27.58;15.95;;;;;;;;;;4973099;28;20059;-71
2021/12/16 03:59:53;;;;;;;32.88;15.52;;;;;;;;;;4972862;28;20149;-71
2021/12/16 04:02:23;;;;;;;29.10;15.05;;;;;;;;;;4961244;28;20107;-70
2021/12/16 04:04:51;;;;;;;31.50;16.20;;;;;;;;;;4953468;28;20136;-71
2021/12/16 04:07:20;;;;;;;36.17;15.95;;;;;;;;;;4966582;28;20142;-71
2021/12/16 04:09:47;;;;;;;28.55;14.63;;;;;;;;;;4972984;28;20051;-71
2021/12/16 04:12:19;;;;;;;37.15;16.92;;;;;;;;;;4972335;28;20487;-72
2021/12/16 04:14:47;;;;;;;33.33;15.77;;;;;;;;;;4972551;28;20062;-70
2021/12/16 04:17:13;;;;;;;34.35;15.75;;;;;;;;;;4973258;28;20054;-71
2021/12/16 04:19:40;;;;;;;28.63;16.15;;;;;;;;;;4972951;28;20061;-70
2021/12/16 04:22:17;;;;;;;37.67;16.67;;;;;;;;;;4964156;28;20538;-71
2021/12/16 04:24:44;;;;;;;30.60;14.85;;;;;;;;;;4968204;28;20510;-71
2021/12/16 04:27:11;;;;;;;32.47;14.55;;;;;;;;;;4972664;28;20055;-71
2021/12/16 04:29:38;;;;;;;28.05;15.23;;;;;;;;;;4971771;28;20516;-72
2021/12/16 04:32:04;;;;;;;31.83;14.10;;;;;;;;;;4971099;28;20062;-72
2021/12/16 04:34:30;;;;;;;29.92;14.55;;;;;;;;;;4972643;28;20066;-71
2021/12/16 04:36:57;;;;;;;31.33;16.35;;;;;;;;;;4972554;28;20057;-71
2021/12/16 04:39:24;;;;;;;22.67;12.27;;;;;;;;;;4972450;28;20056;-71
2021/12/16 04:41:53;;;;;;;29.65;15.35;;;;;;;;;;4972340;28;20055;-72
2021/12/16 04:44:20;;;;;;;25.70;13.45;;;;;;;;;;4972189;28;20071;-70
2021/12/16 04:46:46;;;;;;;21.98;12.73;;;;;;;;;;4972547;28;20059;-71
2021/12/16 04:49:13;;;;;;;26.27;14.75;;;;;;;;;;4972406;28;20438;-71
2021/12/16 04:51:42;;;;;;;31.88;15.15;;;;;;;;;;4972611;28;20051;-72
2021/12/16 04:54:08;;;;;;;29.65;13.50;;;;;;;;;;4972154;28;20511;-71
2021/12/16 04:56:35;;;;;;;33.17;15.15;;;;;;;;;;4972570;28;20059;-72
2021/12/16 04:59:08;;;;;;;27.73;14.20;;;;;;;;;;4972423;28;20506;-71
2021/12/16 05:01:35;;;;;;;30.17;14.07;;;;;;;;;;4972100;28;20070;-71
2021/12/16 05:04:01;;;;;;;27.58;14.30;;;;;;;;;;4972122;28;20499;-72
2021/12/16 05:06:27;;;;;;;28.35;15.48;;;;;;;;;;4973129;28;20448;-70
2021/12/16 05:08:54;;;;;;;28.23;13.98;;;;;;;;;;4975114;28;20094;-71
2021/12/16 05:11:21;;;;;;;33.08;14.75;;;;;;;;;;4978436;28;20067;-70
2021/12/16 05:13:48;;;;;;;30.10;14.10;;;;;;;;;;4975362;28;20148;-71
2021/12/16 05:16:15;;;;;;;28.00;13.85;;;;;;;;;;4955254;28;20063;-71
2021/12/16 05:18:41;;;;;;;24.75;13.35;;;;;;;;;;4972109;28;20065;-71
2021/12/16 05:21:12;;;;;;;20.45;12.25;;;;;;;;;;4971490;28;20065;-71
2021/12/16 05:26:23;;;;;;;20.58;11.80;;;;;;;;;;4972062;28;20059;-70
2021/12/16 05:28:55;;;;;;;20.80;12.60;;;;;;;;;;4971821;28;20065;-72
2021/12/16 05:31:23;;;;;;;22.40;11.85;;;;;;;;;;4970689;28;20189;-71
2021/12/16 05:33:49;;;;;;;27.33;12.93;;;;;;;;;;4970537;28;20066;-71
2021/12/16 05:36:16;;;;;;;21.77;13.25;;;;;;;;;;4971751;28;20055;-71
2021/12/16 05:38:43;;;;;;;27.02;13.57;;;;;;;;;;4971681;28;20065;-71
2021/12/16 05:41:11;;;;;;;24.92;13.63;;;;;;;;;;4971761;28;20055;-71
2021/12/16 05:43:37;;;;;;;26.67;14.18;;;;;;;;;;4954584;28;20510;-71
2021/12/16 05:46:04;;;;;;;30.85;14.40;;;;;;;;;;4971876;28;20055;-71
2021/12/16 05:48:31;;;;;;;25.75;13.73;;;;;;;;;;4971743;28;20056;-70
2021/12/16 05:51:00;;;;;;;24.42;14.30;;;;;;;;;;4971238;28;20089;-70
2021/12/16 05:53:28;;;;;;;30.25;15.18;;;;;;;;;;4958400;28;20448;-70
2021/12/16 05:55:56;;;;;;;30.45;14.65;;;;;;;;;;4966386;28;20511;-71
2021/12/16 05:58:23;;;;;;;24.52;13.27;;;;;;;;;;4969696;28;20500;-71
2021/12/16 06:01:01;;;;;;;26.85;12.48;;;;;;;;;;4971856;28;20055;-72
2021/12/16 06:03:28;;;;;;;27.48;14.00;;;;;;;;;;4972179;28;20138;-72
2021/12/16 06:05:54;;;;;;;26.88;14.05;;;;;;;;;;4972308;28;20483;-71
2021/12/16 06:08:21;;;;;;;25.67;13.75;;;;;;;;;;4971636;28;20142;-71
2021/12/16 06:13:16;;;;;;;29.58;14.52;;;;;;;;;;4946140;28;20059;-71
2021/12/16 06:27:06;;;;;;;23.55;13.48;;;;;;;;;;4951341;28;20106;-71
2021/12/16 06:29:33;;;;;;;24.30;12.88;;;;;;;;;;4949120;28;20066;-72
2021/12/16 06:32:06;;;;;;;24.00;11.95;;;;;;;;;;4952352;28;20083;-72
2021/12/16 06:34:32;;;;;;;25.25;13.57;;;;;;;;;;4952259;28;20094;-71
2021/12/16 06:36:59;;;;;;;25.13;12.45;;;;;;;;;;4934723;28;20048;-71
2021/12/16 06:39:26;;;;;;;22.70;12.95;;;;;;;;;;4951889;28;20064;-71
2021/12/16 06:41:52;;;;;;;18.98;11.38;;;;;;;;;;4952233;28;20062;-71
2021/12/16 06:44:24;;;;;;;17.90;11.15;;;;;;;;;;4934478;28;20052;-71
2021/12/16 06:46:54;;;;;;;20.75;11.63;;;;;;;;;;4961208;28;20055;-69
2021/12/16 06:49:21;;;;;;;21.02;12.25;;;;;;;;;;4948970;28;20490;-70
2021/12/16 06:54:23;;;;;;;21.02;12.32;;;;;;;;;;4949843;28;20060;-70
2021/12/16 06:57:01;;;;;;;19.77;12.63;;;;;;;;;;4952272;28;20087;-70
2021/12/16 06:59:34;;;;;;;21.77;12.20;;;;;;;;;;4958751;28;20062;-70
2021/12/16 07:02:11;;;;;;;29.48;13.57;;;;;;;;;;4951040;28;20157;-70
2021/12/16 07:04:37;;;;;;;25.48;12.88;;;;;;;;;;4969972;28;20419;-69
2021/12/16 07:07:06;;;;;;;21.00;13.15;;;;;;;;;;4959474;28;20062;-71
2021/12/16 07:09:33;;;;;;;23.15;12.93;;;;;;;;;;4960270;28;20138;-71
2021/12/16 07:12:00;;;;;;;18.48;12.82;;;;;;;;;;4966382;28;20052;-70
2021/12/16 07:14:38;;;;;;;22.88;12.50;;;;;;;;;;4951478;28;20063;-70
2021/12/16 07:17:07;;;;;;;19.40;12.15;;;;;;;;;;4940790;28;20503;-70
2021/12/16 07:19:37;;;;;;;20.50;12.25;;;;;;;;;;4948110;28;20527;-71
2021/12/16 07:22:04;;;;;;;24.35;12.85;;;;;;;;;;4972358;28;20060;-71
2021/12/16 07:24:31;;;;;;;24.63;14.10;;;;;;;;;;4968952;28;20513;-71
2021/12/16 07:26:57;;;;;;;30.70;14.80;;;;;;;;;;4952351;28;20056;-71
2021/12/16 07:29:24;;;;;;;24.00;13.30;;;;;;;;;;4953258;28;20238;-71
2021/12/16 07:31:51;;;;;;;19.08;12.13;;;;;;;;;;4952426;28;20064;-70
2021/12/16 07:34:19;;;;;;;21.67;12.50;;;;;;;;;;4953714;28;20059;-71
2021/12/16 07:36:46;;;;;;;24.20;12.85;;;;;;;;;;4972301;28;20063;-71
2021/12/16 07:39:17;;;;;;;25.15;13.35;;;;;;;;;;4963308;28;20055;-71
2021/12/16 07:41:47;;;;;;;19.65;12.43;;;;;;;;;;4960015;28;20059;-71
2021/12/16 07:44:16;;;;;;;22.98;12.98;;;;;;;;;;4969286;28;20062;-71
2021/12/16 07:46:53;;;;;;;24.15;12.75;;;;;;;;;;4947528;28;20514;-71
2021/12/16 07:49:24;;;;;;;22.23;11.45;;;;;;;;;;4953480;28;20062;-71
2021/12/16 07:51:50;;;;;;;24.30;11.77;;;;;;;;;;4954138;28;20143;-71
2021/12/16 07:54:17;;;;;;;22.20;13.30;;;;;;;;;;4961047;28;20068;-71
2021/12/16 07:56:44;;;;;;;18.83;12.57;;;;;;;;;;4947692;28;20060;-72
2021/12/16 07:59:11;;;;;;;19.92;12.25;;;;;;;;;;4951759;28;20051;-70
2021/12/16 08:01:38;;;;;;;25.35;13.23;;;;;;;;;;4955860;28;20052;-69
2021/12/16 08:04:06;;;;;;;22.98;11.90;;;;;;;;;;4952011;28;20052;-70
2021/12/16 08:06:33;;;;;;;22.67;12.27;;;;;;;;;;4952269;28;20056;-69
2021/12/16 08:09:02;;;;;;;22.55;13.18;;;;;;;;;;4953186;28;20499;-69
2021/12/16 08:11:30;;;;;;;19.00;12.02;;;;;;;;;;4953945;28;20109;-70
2021/12/16 08:14:02;;;;;;;25.33;12.65;;;;;;;;;;4953832;28;20063;-69
2021/12/16 08:16:28;;;;;;;22.80;12.35;;;;;;;;;;4953232;28;20055;-69
2021/12/16 08:18:54;;;;;;;22.33;11.85;;;;;;;;;;4951161;28;20799;-70
2021/12/16 08:21:23;;;;;;;20.25;12.00;;;;;;;;;;4951951;28;20051;-69
2021/12/16 08:23:50;;;;;;;21.85;12.48;;;;;;;;;;4952472;28;20063;-69
2021/12/16 08:26:17;;;;;;;26.42;13.85;;;;;;;;;;4957240;28;20058;-70
2021/12/16 08:28:44;;;;;;;20.75;12.50;;;;;;;;;;4953076;28;20087;-69
2021/12/16 08:31:11;;;;;;;24.02;12.52;;;;;;;;;;4953198;28;20135;-70
2021/12/16 08:33:38;;;;;;;21.48;13.07;;;;;;;;;;4955452;28;20600;-69
2021/12/16 08:36:06;;;;;;;23.63;13.63;;;;;;;;;;4954918;28;20496;-70
2021/12/16 08:38:33;;;;;;;26.08;14.32;;;;;;;;;;4953150;28;20051;-70
2021/12/16 08:41:01;;;;;;;21.90;13.00;;;;;;;;;;4961825;28;20062;-71
2021/12/16 08:43:27;;;;;;;25.17;13.32;;;;;;;;;;4972606;28;20134;-72
2021/12/16 08:45:54;;;;;;;26.67;13.77;;;;;;;;;;4958043;28;20056;-71
2021/12/16 08:48:21;;;;;;;26.50;14.23;;;;;;;;;;4950899;28;20703;-70
2021/12/16 08:50:48;;;;;;;32.53;14.25;;;;;;;;;;4950931;28;20052;-70
2021/12/16 08:53:16;;;;;;;26.70;14.25;;;;;;;;;;4963559;28;20055;-70
2021/12/16 08:55:43;;;;;;;26.50;14.32;;;;;;;;;;4970753;28;20057;-71
2021/12/16 08:58:10;;;;;;;23.40;13.73;;;;;;;;;;4959495;28;20056;-70
2021/12/16 09:00:41;;;;;;;25.30;14.15;;;;;;;;;;4951645;28;20058;-69
2021/12/16 09:03:08;;;;;;;22.88;13.75;;;;;;;;;;4963244;28;20059;-68
2021/12/16 09:05:35;;;;;;;31.10;14.80;;;;;;;;;;4969163;28;20982;-71
2021/12/16 09:08:02;;;;;;;26.00;14.38;;;;;;;;;;4951231;28;20134;-70
2021/12/16 09:10:30;;;;;;;23.95;13.65;;;;;;;;;;4950757;28;20056;-73
2021/12/16 09:13:04;;;;;;;26.83;13.82;;;;;;;;;;4961364;28;20059;-71
2021/12/16 09:15:30;;;;;;;26.33;14.27;;;;;;;;;;4970447;28;20074;-72
2021/12/16 09:17:57;;;;;;;31.75;15.63;;;;;;;;;;4968121;28;20170;-72
2021/12/16 09:20:24;;;;;;;22.65;13.77;;;;;;;;;;4950603;28;20062;-70
2021/12/16 09:22:50;;;;;;;26.48;14.93;;;;;;;;;;4951481;28;20062;-72
2021/12/16 09:25:16;;;;;;;20.55;12.95;;;;;;;;;;4951740;28;20054;-71
2021/12/16 09:27:43;;;;;;;28.83;14.15;;;;;;;;;;4950993;28;20055;-73
2021/12/16 09:30:11;;;;;;;22.80;13.85;;;;;;;;;;4953428;28;20052;-71
2021/12/16 09:32:38;;;;;;;28.30;14.73;;;;;;;;;;4959234;28;20066;-70
2021/12/16 09:35:07;;;;;;;22.10;14.30;;;;;;;;;;4950834;28;21019;-71
2021/12/16 09:37:33;;;;;;;27.33;15.23;;;;;;;;;;4950226;28;20058;-71
2021/12/16 09:40:01;;;;;;;28.30;14.90;;;;;;;;;;4941813;28;20064;-71
2021/12/16 09:42:27;;;;;;;26.20;15.40;;;;;;;;;;4931512;28;20110;-71
2021/12/16 09:45:00;;;;;;;24.52;13.88;;;;;;;;;;4954672;28;20118;-71
2021/12/16 09:47:27;;;;;;;30.10;16.08;;;;;;;;;;4951034;28;20060;-71
2021/12/16 09:49:53;;;;;;;31.23;16.35;;;;;;;;;;4950488;28;20139;-71
2021/12/16 09:52:20;;;;;;;27.85;14.85;;;;;;;;;;4952010;28;20530;-73
2021/12/16 09:54:47;;;;;;;23.80;13.32;;;;;;;;;;4951815;28;20064;-72
2021/12/16 09:57:15;;;;;;;21.15;13.63;;;;;;;;;;4950564;28;20052;-70
2021/12/16 09:59:42;;;;;;;32.78;17.98;;;;;;;;;;4950465;28;20060;-70
2021/12/16 10:02:12;;;;;;;28.52;16.70;;;;;;;;;;4947766;28;20094;-71
2021/12/16 10:04:39;;;;;;;39.92;17.77;;;;;;;;;;4948037;28;20065;-70
2021/12/16 10:07:13;;;;;;;38.55;18.88;;;;;;;;;;4911225;28;20111;-71
2021/12/16 10:09:39;;;;;;;35.95;17.88;;;;;;;;;;4951480;28;20064;-72
2021/12/16 10:12:12;;;;;;;32.78;17.60;;;;;;;;;;4951623;28;20438;-72
2021/12/16 10:17:28;;;;;;;39.50;18.48;;;;;;;;;;4941499;28;20058;-69
2021/12/16 10:19:57;;;;;;;37.30;19.23;;;;;;;;;;4931787;28;20526;-67
2021/12/16 10:22:32;;;;;;;40.78;18.70;;;;;;;;;;4945260;28;20052;-69
2021/12/16 10:25:19;;;;;;;39.90;20.23;;;;;;;;;;4942510;28;20056;-70
2021/12/16 10:27:53;;;;;;;26.38;13.85;;;;;;;;;;4949827;28;20059;-65
2021/12/16 10:30:20;;;;;;;29.17;16.05;;;;;;;;;;4950124;28;20086;-70
2021/12/16 10:32:48;;;;;;;31.38;19.55;;;;;;;;;;4949757;28;20056;-69
2021/12/16 10:35:27;;;;;;;36.22;19.35;;;;;;;;;;4950272;28;20060;-71
2021/12/16 10:37:55;;;;;;;37.85;19.08;;;;;;;;;;4950133;28;20063;-71
2021/12/16 10:40:43;;;;;;;37.38;19.25;;;;;;;;;;4950707;28;20056;-71
2021/12/16 10:43:31;;;;;;;39.92;19.83;;;;;;;;;;4930434;28;20092;-69
2021/12/16 10:46:01;;;;;;;41.05;22.15;;;;;;;;;;4949726;28;20051;-69
2021/12/16 10:48:29;;;;;;;33.92;18.65;;;;;;;;;;4950338;28;20146;-71
2021/12/16 10:50:58;;;;;;;39.40;18.33;;;;;;;;;;4949745;28;20056;-71
2021/12/16 10:53:43;;;;;;;44.90;21.00;;;;;;;;;;4936667;28;20079;-71
2021/12/16 10:56:10;;;;;;;38.60;21.30;;;;;;;;;;4946389;28;20931;-71
2021/12/16 10:58:47;;;;;;;45.55;21.98;;;;;;;;;;4946992;28;20466;-70
2021/12/16 11:01:31;;;;;;;40.53;20.58;;;;;;;;;;4949145;28;20837;-72
2021/12/16 11:04:01;;;;;;;47.30;22.60;;;;;;;;;;4968904;28;20471;-72
2021/12/16 11:06:33;;;;;;;51.85;23.05;;;;;;;;;;4961408;28;20055;-70
2021/12/16 11:09:18;;;;;;;46.72;22.80;;;;;;;;;;4938760;28;20095;-70
2021/12/16 11:11:44;;;;;;;45.73;22.90;;;;;;;;;;4948238;28;20060;-71
2021/12/16 11:14:10;;;;;;;44.63;21.30;;;;;;;;;;4948231;28;20063;-71
2021/12/16 11:16:37;;;;;;;35.80;20.27;;;;;;;;;;4947667;28;20060;-71
2021/12/16 11:19:04;;;;;;;39.17;21.02;;;;;;;;;;4943968;28;20123;-71
2021/12/16 11:21:32;;;;;;;39.30;20.67;;;;;;;;;;4939447;28;20131;-71
2021/12/16 11:23:58;;;;;;;49.60;21.45;;;;;;;;;;4950137;28;20082;-69
2021/12/16 11:26:29;;;;;;;32.53;19.98;;;;;;;;;;4960600;28;20052;-69
2021/12/16 11:28:56;;;;;;;41.75;20.90;;;;;;;;;;4932166;28;20503;-70
2021/12/16 11:31:25;;;;;;;39.97;20.80;;;;;;;;;;4951802;28;20093;-71
2021/12/16 11:33:56;;;;;;;40.83;19.58;;;;;;;;;;4950645;28;20520;-71
2021/12/16 11:36:45;;;;;;;36.88;19.80;;;;;;;;;;4949453;28;20052;-71
2021/12/16 11:39:20;;;;;;;39.78;21.20;;;;;;;;;;4942268;28;20055;-70
2021/12/16 11:41:47;;;;;;;40.17;20.30;;;;;;;;;;4951068;28;20496;-71
2021/12/16 11:44:16;;;;;;;38.78;21.02;;;;;;;;;;4950738;28;20059;-69
2021/12/16 11:47:17;;;;;;;35.35;19.95;;;;;;;;;;4961750;28;20545;-71
2021/12/16 11:49:46;;;;;;;40.85;21.10;;;;;;;;;;4981425;28;20060;-72
2021/12/16 11:52:17;;;;;;;40.72;19.80;;;;;;;;;;4944588;28;20529;-72
2021/12/16 11:54:46;;;;;;;39.50;21.52;;;;;;;;;;4920515;29;20495;-70
2021/12/16 11:57:15;;;;;;;36.97;20.88;;;;;;;;;;4932417;28;20570;-70
2021/12/16 11:59:43;;;;;;;42.35;21.25;;;;;;;;;;4908940;29;20511;-70
2021/12/16 12:02:40;;;;;;;38.70;20.70;;;;;;;;;;5015112;28;20050;-70
2021/12/16 12:05:25;;;;;;;36.30;21.15;;;;;;;;;;5007047;28;20513;-70
2021/12/16 12:07:56;;;;;;;33.25;21.52;;;;;;;;;;5028438;28;20055;-70
2021/12/16 12:10:40;;;;;;;39.92;22.58;;;;;;;;;;5015019;28;20056;-71
2021/12/16 12:13:07;;;;;;;37.55;20.20;;;;;;;;;;5015434;28;20517;-70
2021/12/16 12:15:50;;;;;;;42.45;22.67;;;;;;;;;;5032006;28;20136;-70
2021/12/16 12:18:35;;;;;;;34.42;19.80;;;;;;;;;;5028719;28;20486;-70
2021/12/16 12:21:35;;;;;;;39.07;24.03;;;;;;;;;;5012902;28;20153;-69
2021/12/16 12:24:03;;;;;;;42.85;24.08;;;;;;;;;;4969080;28;20053;-70
2021/12/16 12:26:30;;;;;;;40.13;22.95;;;;;;;;;;5024672;28;20066;-72
2021/12/16 12:28:59;;;;;;;36.72;23.60;;;;;;;;;;5019543;28;20567;-70
2021/12/16 12:31:28;;;;;;;44.30;26.33;;;;;;;;;;5014073;28;20058;-71
2021/12/16 12:33:54;;;;;;;41.65;26.27;;;;;;;;;;5013049;28;20050;-68
2021/12/16 12:36:22;;;;;;;49.38;26.88;;;;;;;;;;5013208;28;20054;-72
2021/12/16 12:38:49;;;;;;;44.58;25.15;;;;;;;;;;5012229;28;20509;-70
2021/12/16 12:41:16;;;;;;;42.90;24.85;;;;;;;;;;5019026;28;20057;-71
2021/12/16 12:43:44;;;;;;;46.08;24.73;;;;;;;;;;5012536;28;20078;-70
2021/12/16 12:46:13;;;;;;;40.30;24.17;;;;;;;;;;5015517;28;20532;-70
2021/12/16 12:48:41;;;;;;;46.75;26.25;;;;;;;;;;5020703;28;20054;-70
2021/12/16 12:51:08;;;;;;;47.45;25.35;;;;;;;;;;4945209;28;20090;-69
2021/12/16 12:53:37;;;;;;;52.08;25.67;;;;;;;;;;5008584;28;20082;-70
2021/12/16 12:56:11;;;;;;;42.78;23.15;;;;;;;;;;4960800;28;20063;-70
2021/12/16 12:58:51;;;;;;;44.53;25.00;;;;;;;;;;4961051;28;20133;-69
2021/12/16 13:01:31;;;;;;;36.60;23.83;;;;;;;;;;4952116;28;20518;-70
2021/12/16 13:04:02;;;;;;;40.33;23.30;;;;;;;;;;4954740;28;20079;-70
2021/12/16 13:06:29;;;;;;;47.55;25.45;;;;;;;;;;4953260;28;20052;-70
2021/12/16 13:08:55;;;;;;;36.50;21.30;;;;;;;;;;4941870;28;20056;-69
2021/12/16 13:11:27;;;;;;;37.90;23.25;;;;;;;;;;4951407;28;20055;-70
2021/12/16 13:13:57;;;;;;;42.35;23.35;;;;;;;;;;4951776;28;20149;-71
2021/12/16 13:28:00;;;;;;;40.60;23.27;;;;;;;;;;4972522;28;20066;-73
2021/12/16 13:30:30;;;;;;;45.95;22.23;;;;;;;;;;4951409;28;20155;-73
2021/12/16 13:33:46;;;;;;;35.53;22.98;;;;;;;;;;4952799;28;20044;-72
2021/12/16 13:36:06;;;;;;;44.90;24.85;;;;;;;;;;4952652;28;20079;-75
2021/12/16 13:38:43;;;;;;;43.58;24.63;;;;;;;;;;4955731;28;20506;-71
2021/12/16 13:41:16;;;;;;;44.60;24.35;;;;;;;;;;4965326;28;20051;-75
2021/12/16 13:44:06;;;;;;;41.20;23.55;;;;;;;;;;4971684;28;20499;-71
2021/12/16 13:46:51;;;;;;;45.25;25.27;;;;;;;;;;4970658;28;20483;-72
2021/12/16 14:08:33;;;;;;;35.70;22.20;;;;;;;;;;4968322;28;20074;-72
2021/12/16 14:11:16;;;;;;;40.60;24.38;;;;;;;;;;4951042;28;20061;-71
2021/12/16 14:22:57;;;;;;;37.43;22.63;;;;;;;;;;4962233;28;20056;-70
2021/12/16 14:36:55;;;;;;;39.97;23.45;;;;;;;;;;4965011;28;20133;-70
2021/12/16 14:39:43;;;;;;;36.22;23.05;;;;;;;;;;4961212;28;20062;-72
2021/12/16 14:47:30;;;;;;;47.92;25.42;;;;;;;;;;4970473;28;20059;-69
2021/12/16 14:49:56;;;;;;;72.50;30.90;;;;;;;;;;4950965;28;20063;-70
2021/12/16 14:52:26;;;;;;;41.63;24.15;;;;;;;;;;4940430;28;20500;-72
2021/12/16 14:54:57;;;;;;;51.33;26.08;;;;;;;;;;4930265;28;20064;-72
2021/12/16 14:57:25;;;;;;;42.92;25.50;;;;;;;;;;4930825;28;20060;-70
2021/12/16 14:59:52;;;;;;;52.72;26.58;;;;;;;;;;4944248;28;20103;-70
2021/12/16 15:02:22;;;;;;;46.58;26.25;;;;;;;;;;4973205;28;20058;-71
2021/12/16 15:04:48;;;;;;;46.35;25.85;;;;;;;;;;4956172;28;20086;-72
2021/12/16 15:07:15;;;;;;;41.70;25.13;;;;;;;;;;4954264;28;20058;-71
2021/12/16 15:09:42;;;;;;;52.40;26.10;;;;;;;;;;4955693;28;20062;-70
2021/12/16 15:12:24;;;;;;;60.78;26.88;;;;;;;;;;4968801;28;20067;-71
2021/12/16 15:15:08;;;;;;;45.33;24.98;;;;;;;;;;4954335;28;20526;-72
2021/12/16 15:32:04;;;;;;;40.40;23.83;;;;;;;;;;4932530;29;43928;-72
2021/12/16 15:45:06;;;;;;;30.92;19.10;;;;;;;;;;4951502;28;20056;-61
2021/12/16 15:47:38;;;;;;;34.88;23.08;;;;;;;;;;4954678;28;22147;-73
2021/12/16 15:50:05;;;;;;;37.08;21.90;;;;;;;;;;4985950;28;20045;-73
2021/12/16 15:52:37;;;;;;;42.20;23.63;;;;;;;;;;4955686;28;20059;-73
2021/12/16 15:55:05;;;;;;;37.90;23.77;;;;;;;;;;4953008;28;20074;-73
2021/12/16 15:57:31;;;;;;;48.28;25.20;;;;;;;;;;4956656;28;20482;-74
2021/12/16 16:00:06;;;;;;;39.20;24.50;;;;;;;;;;4954454;28;20573;-74
2021/12/16 16:02:33;;;;;;;39.50;23.85;;;;;;;;;;4952060;28;20067;-72
2021/12/16 16:05:00;;;;;;;36.95;23.60;;;;;;;;;;4952321;28;20056;-74
2021/12/16 16:07:26;;;;;;;38.10;22.95;;;;;;;;;;4951370;28;20060;-73
2021/12/16 16:09:52;;;;;;;35.42;23.27;;;;;;;;;;4953821;28;20056;-73
2021/12/16 16:12:23;;;;;;;33.97;23.05;;;;;;;;;;4952748;28;20059;-73
2021/12/16 16:14:50;;;;;;;40.70;24.20;;;;;;;;;;4949306;28;20060;-73
2021/12/16 16:17:20;;;;;;;35.58;21.63;;;;;;;;;;4954349;28;20054;-73
2021/12/16 16:19:48;;;;;;;36.70;21.08;;;;;;;;;;4958071;28;20077;-73
2021/12/16 16:22:15;;;;;;;31.83;20.88;;;;;;;;;;4953296;28;20058;-73
2021/12/16 16:24:47;;;;;;;30.30;20.13;;;;;;;;;;4946419;28;20126;-74
2021/12/16 16:27:15;;;;;;;30.95;21.00;;;;;;;;;;4952818;28;20051;-73
2021/12/16 16:29:46;;;;;;;31.38;21.13;;;;;;;;;;4952302;28;20066;-73
2021/12/16 16:32:13;;;;;;;34.05;21.52;;;;;;;;;;4978568;28;20055;-74
2021/12/16 16:34:49;;;;;;;30.92;21.05;;;;;;;;;;4954317;28;20056;-73
2021/12/16 16:37:32;;;;;;;31.67;21.20;;;;;;;;;;4957013;28;20073;-75
2021/12/16 16:40:00;;;;;;;42.10;24.23;;;;;;;;;;4956779;28;20055;-75
2021/12/16 16:42:34;;;;;;;39.63;23.67;;;;;;;;;;4953098;28;20146;-74
2021/12/16 16:45:03;;;;;;;38.10;24.30;;;;;;;;;;4952956;28;20048;-72
2021/12/16 16:47:46;;;;;;;34.67;23.50;;;;;;;;;;4943545;28;20059;-73
2021/12/16 16:50:13;;;;;;;32.67;21.15;;;;;;;;;;4933282;29;20052;-75
2021/12/16 16:52:41;;;;;;;31.73;21.92;;;;;;;;;;4954870;28;20514;-74
2021/12/16 16:55:17;;;;;;;33.15;22.17;;;;;;;;;;4953622;28;20677;-74
2021/12/16 16:57:47;;;;;;;26.70;19.45;;;;;;;;;;4933057;29;20049;-74
2021/12/16 17:00:38;;;;;;;30.73;20.77;;;;;;;;;;4965898;28;20066;-74
2021/12/16 17:03:06;;;;;;;32.13;22.38;;;;;;;;;;4949401;28;20511;-76
2021/12/16 17:05:34;;;;;;;31.75;23.50;;;;;;;;;;4955329;28;20062;-75
2021/12/16 17:08:04;;;;;;;31.00;22.60;;;;;;;;;;4951935;28;20051;-74
2021/12/16 17:10:35;;;;;;;30.48;20.95;;;;;;;;;;4966898;28;20583;-75
2021/12/16 17:13:14;;;;;;;34.10;23.88;;;;;;;;;;4952701;28;20062;-74
2021/12/16 17:17:11;;;;;;;37.03;23.98;;;;;;;;;;4946504;28;20062;-75
2021/12/16 17:18:40;;;;;;;35.95;23.70;;;;;;;;;;4935590;28;20048;-73
2021/12/16 17:21:18;;;;;;;37.38;24.45;;;;;;;;;;4952378;28;20062;-75
2021/12/16 17:23:49;;;;;;;33.40;23.63;;;;;;;;;;4958590;28;20063;-76
2021/12/16 17:26:19;;;;;;;36.85;23.40;;;;;;;;;;4949729;28;20056;-74
2021/12/16 17:28:57;;;;;;;42.00;25.67;;;;;;;;;;4937761;28;20066;-72
2021/12/16 17:31:29;;;;;;;42.05;27.02;;;;;;;;;;4959027;28;20051;-76
2021/12/16 17:34:07;;;;;;;44.85;27.40;;;;;;;;;;4950685;28;20142;-76
2021/12/16 17:36:33;;;;;;;51.15;29.05;;;;;;;;;;4939416;28;20484;-74
2021/12/16 17:39:06;;;;;;;47.95;28.70;;;;;;;;;;4954157;28;20529;-74
2021/12/16 17:41:33;;;;;;;43.55;27.38;;;;;;;;;;4950582;28;20507;-73
2021/12/16 17:43:59;;;;;;;39.13;26.00;;;;;;;;;;4952645;28;20055;-73
2021/12/16 17:46:26;;;;;;;43.17;27.35;;;;;;;;;;4947650;28;20048;-74
2021/12/16 17:48:54;;;;;;;39.88;26.48;;;;;;;;;;4951599;28;20176;-74
2021/12/16 17:51:23;;;;;;;42.28;26.95;;;;;;;;;;4951587;28;20055;-74
2021/12/16 17:53:55;;;;;;;40.60;26.48;;;;;;;;;;4971654;28;20070;-73
2021/12/16 17:56:22;;;;;;;43.45;28.45;;;;;;;;;;4956303;28;20557;-74
2021/12/16 17:58:51;;;;;;;43.95;27.80;;;;;;;;;;4940190;28;20066;-74
2021/12/16 18:01:25;;;;;;;47.75;29.73;;;;;;;;;;4956673;28;20056;-74